Time;durP1;ratioP1;P1;durP2;ratioP2;P2;SDS_P1;SDS_P2;PMS_P1;PMS_P2;Temp;Humidity;BMP_temperature;BMP_pressure;BME280_temperature;BME280_humidity;BME280_pressure;Samples;Min_cycle;Max_cycle;Signal;HPM_P1;HPM_P2
2023/09/24 00:03:33;;;;;;;8.57;5.78;;;;;;;;;;10452133;27;20073;-64
2023/09/24 00:08:32;;;;;;;7.18;5.78;;;;;;;;;;10456244;27;20071;-64
2023/09/24 00:13:33;;;;;;;14.30;6.78;;;;;;;;;;10454799;27;20088;-64
2023/09/24 00:18:32;;;;;;;10.98;5.10;;;;;;;;;;10457289;27;20067;-64
2023/09/24 00:23:32;;;;;;;11.35;5.38;;;;;;;;;;10453108;27;20074;-64
2023/09/24 00:28:30;;;;;;;11.10;5.35;;;;;;;;;;10454410;27;20075;-65
2023/09/24 00:33:29;;;;;;;11.90;5.55;;;;;;;;;;10436953;27;20055;-65
2023/09/24 00:38:28;;;;;;;11.18;6.28;;;;;;;;;;10453985;27;20074;-64
2023/09/24 00:43:28;;;;;;;14.25;6.60;;;;;;;;;;10443637;27;20523;-63
2023/09/24 00:48:29;;;;;;;12.90;6.45;;;;;;;;;;10457223;27;20089;-65
2023/09/24 00:53:29;;;;;;;10.13;6.60;;;;;;;;;;10451311;27;20070;-66
2023/09/24 00:58:30;;;;;;;11.95;6.90;;;;;;;;;;10451076;27;20074;-65
2023/09/24 01:03:29;;;;;;;14.40;8.05;;;;;;;;;;10453120;27;20070;-65
2023/09/24 01:08:31;;;;;;;15.93;8.55;;;;;;;;;;10454613;27;20466;-65
2023/09/24 01:13:38;;;;;;;13.43;6.40;;;;;;;;;;10454545;27;20533;-66
2023/09/24 01:18:39;;;;;;;9.60;7.65;;;;;;;;;;10453161;27;20069;-65
2023/09/24 01:23:40;;;;;;;15.90;7.43;;;;;;;;;;10436560;27;20070;-65
2023/09/24 01:28:39;;;;;;;13.15;6.65;;;;;;;;;;10456543;27;20083;-64
2023/09/24 01:33:38;;;;;;;9.48;6.25;;;;;;;;;;10453202;27;20077;-66
2023/09/24 01:38:39;;;;;;;10.38;6.10;;;;;;;;;;10451630;27;20058;-65
2023/09/24 01:43:42;;;;;;;9.05;6.28;;;;;;;;;;10453491;27;20077;-65
2023/09/24 01:48:40;;;;;;;10.43;6.55;;;;;;;;;;10458019;27;20078;-65
2023/09/24 01:53:39;;;;;;;11.77;6.95;;;;;;;;;;10455107;27;20093;-65
2023/09/24 01:58:39;;;;;;;12.00;6.35;;;;;;;;;;10450469;27;20066;-65
2023/09/24 02:03:38;;;;;;;9.95;6.43;;;;;;;;;;10443016;27;20075;-66
2023/09/24 02:08:36;;;;;;;11.55;7.30;;;;;;;;;;10441645;27;20102;-65
2023/09/24 02:13:35;;;;;;;12.38;7.00;;;;;;;;;;10432619;27;20039;-64
2023/09/24 02:18:36;;;;;;;13.05;6.97;;;;;;;;;;10452930;27;20073;-65
2023/09/24 02:23:34;;;;;;;9.27;6.30;;;;;;;;;;10452274;27;20074;-65
2023/09/24 02:28:33;;;;;;;12.00;7.25;;;;;;;;;;10452226;27;20086;-64
2023/09/24 02:33:31;;;;;;;12.75;7.40;;;;;;;;;;10440814;27;20066;-64
2023/09/24 02:38:31;;;;;;;13.38;6.82;;;;;;;;;;10459282;27;20515;-64
2023/09/24 02:43:32;;;;;;;10.98;7.50;;;;;;;;;;10460928;27;20523;-65
2023/09/24 02:48:30;;;;;;;12.02;7.03;;;;;;;;;;10462259;27;20073;-63
2023/09/24 02:53:28;;;;;;;11.98;6.85;;;;;;;;;;10460805;27;20499;-64
2023/09/24 02:58:29;;;;;;;13.65;6.25;;;;;;;;;;10438542;27;20054;-64
2023/09/24 03:03:29;;;;;;;10.20;6.35;;;;;;;;;;10444181;27;20571;-64
2023/09/24 03:08:27;;;;;;;12.15;6.30;;;;;;;;;;10458919;27;20063;-64
2023/09/24 03:13:26;;;;;;;19.65;7.93;;;;;;;;;;10442466;27;20075;-64
2023/09/24 03:18:25;;;;;;;11.70;5.65;;;;;;;;;;10458505;27;20514;-65
2023/09/24 03:23:24;;;;;;;11.20;6.53;;;;;;;;;;10441074;27;20075;-64
2023/09/24 03:28:23;;;;;;;8.63;5.97;;;;;;;;;;10458650;27;20105;-64
2023/09/24 03:33:21;;;;;;;10.00;5.57;;;;;;;;;;10438292;27;20077;-65
2023/09/24 03:38:21;;;;;;;10.68;7.65;;;;;;;;;;10449197;27;20058;-65
2023/09/24 03:43:19;;;;;;;10.23;5.45;;;;;;;;;;10440069;27;20078;-64
2023/09/24 03:48:18;;;;;;;13.50;5.97;;;;;;;;;;10458822;27;20063;-64
2023/09/24 03:53:18;;;;;;;6.70;6.10;;;;;;;;;;10441375;27;20078;-65
2023/09/24 03:58:17;;;;;;;11.23;5.07;;;;;;;;;;10441635;27;20086;-65
2023/09/24 04:03:16;;;;;;;8.77;5.45;;;;;;;;;;10458442;27;20516;-65
2023/09/24 04:08:15;;;;;;;8.00;5.50;;;;;;;;;;10456283;27;20070;-65
2023/09/24 04:13:13;;;;;;;14.02;5.80;;;;;;;;;;10459728;27;20495;-64
2023/09/24 04:18:13;;;;;;;12.77;6.07;;;;;;;;;;10449353;27;20071;-65
2023/09/24 04:23:12;;;;;;;9.90;5.38;;;;;;;;;;10446474;27;20074;-64
2023/09/24 04:28:13;;;;;;;9.00;5.28;;;;;;;;;;10455074;27;20516;-64
2023/09/24 04:33:13;;;;;;;9.27;5.28;;;;;;;;;;10456402;27;20077;-65
2023/09/24 04:38:11;;;;;;;10.07;5.90;;;;;;;;;;10453733;27;20494;-65
2023/09/24 04:43:14;;;;;;;9.55;6.20;;;;;;;;;;10459179;27;20474;-65
2023/09/24 04:48:14;;;;;;;10.90;6.80;;;;;;;;;;10456002;27;20488;-65
2023/09/24 04:53:12;;;;;;;8.88;5.43;;;;;;;;;;10454671;27;20527;-64
2023/09/24 04:58:11;;;;;;;12.02;6.32;;;;;;;;;;10452884;27;20089;-64
2023/09/24 05:03:10;;;;;;;11.15;5.70;;;;;;;;;;10455598;27;20071;-64
2023/09/24 05:08:10;;;;;;;14.35;6.57;;;;;;;;;;10457338;27;20074;-65
2023/09/24 05:13:08;;;;;;;7.70;5.30;;;;;;;;;;10456251;27;20451;-65
2023/09/24 05:18:06;;;;;;;13.93;5.55;;;;;;;;;;10454653;27;20062;-64
2023/09/24 05:23:05;;;;;;;12.85;5.53;;;;;;;;;;10450250;27;20078;-65
2023/09/24 05:28:05;;;;;;;13.65;5.65;;;;;;;;;;10452737;27;20115;-64
2023/09/24 05:33:04;;;;;;;14.55;5.10;;;;;;;;;;10448511;27;20063;-66
2023/09/24 05:38:02;;;;;;;12.80;5.63;;;;;;;;;;10457037;27;20063;-64
2023/09/24 05:43:00;;;;;;;8.07;5.13;;;;;;;;;;10456988;27;20074;-64
2023/09/24 05:48:00;;;;;;;10.32;5.47;;;;;;;;;;10454549;27;20635;-64
2023/09/24 05:52:58;;;;;;;11.65;6.43;;;;;;;;;;10457987;27;20085;-64
2023/09/24 05:57:57;;;;;;;20.25;5.82;;;;;;;;;;10451088;27;20074;-65
2023/09/24 06:02:55;;;;;;;14.38;6.07;;;;;;;;;;10451033;27;20074;-66
2023/09/24 06:07:55;;;;;;;13.70;6.15;;;;;;;;;;10462386;27;20070;-66
2023/09/24 06:12:53;;;;;;;10.23;6.28;;;;;;;;;;10460620;27;20079;-64
2023/09/24 06:17:51;;;;;;;14.65;5.68;;;;;;;;;;10462474;27;20066;-65
2023/09/24 06:22:52;;;;;;;7.85;5.35;;;;;;;;;;10455339;27;20438;-65
2023/09/24 06:27:52;;;;;;;11.30;5.60;;;;;;;;;;10461081;27;20075;-64
2023/09/24 06:32:50;;;;;;;8.63;5.93;;;;;;;;;;10461667;27;20490;-65
2023/09/24 06:37:48;;;;;;;10.45;5.72;;;;;;;;;;10457675;27;20077;-65
2023/09/24 06:42:47;;;;;;;10.48;5.82;;;;;;;;;;10455079;27;20093;-65
2023/09/24 06:47:47;;;;;;;11.00;5.63;;;;;;;;;;10456337;27;20070;-66
2023/09/24 06:52:45;;;;;;;10.05;6.00;;;;;;;;;;10454525;27;20063;-66
2023/09/24 06:57:46;;;;;;;11.60;5.82;;;;;;;;;;10458649;27;20066;-66
2023/09/24 07:02:44;;;;;;;7.65;5.70;;;;;;;;;;10458568;27;20082;-66
2023/09/24 07:07:44;;;;;;;12.82;5.50;;;;;;;;;;10464882;27;20066;-66
2023/09/24 07:12:43;;;;;;;10.32;6.68;;;;;;;;;;10462145;27;20065;-65
2023/09/24 07:17:41;;;;;;;11.68;5.10;;;;;;;;;;10458652;27;20063;-65
2023/09/24 07:22:40;;;;;;;9.77;5.78;;;;;;;;;;10459636;27;20082;-66
2023/09/24 07:27:40;;;;;;;12.63;5.57;;;;;;;;;;10459780;27;20078;-65
2023/09/24 07:32:38;;;;;;;9.27;4.60;;;;;;;;;;10460518;27;20074;-66
2023/09/24 07:37:38;;;;;;;17.48;5.65;;;;;;;;;;10460374;27;20066;-65
2023/09/24 07:42:37;;;;;;;15.63;6.00;;;;;;;;;;10457953;27;20077;-66
2023/09/24 07:47:40;;;;;;;13.05;5.10;;;;;;;;;;10460759;27;20062;-64
2023/09/24 07:52:38;;;;;;;10.60;4.90;;;;;;;;;;10460468;27;20143;-65
2023/09/24 07:57:37;;;;;;;12.82;5.40;;;;;;;;;;10457651;27;20459;-65
2023/09/24 08:02:35;;;;;;;13.63;5.80;;;;;;;;;;10455106;27;20067;-65
2023/09/24 08:07:36;;;;;;;7.95;4.65;;;;;;;;;;10459030;27;20066;-65
2023/09/24 08:12:34;;;;;;;9.88;5.28;;;;;;;;;;10459203;27;20059;-66
2023/09/24 08:17:33;;;;;;;11.77;5.18;;;;;;;;;;10452802;27;20510;-66
2023/09/24 08:22:31;;;;;;;10.98;5.85;;;;;;;;;;10457832;27;20081;-66
2023/09/24 08:27:31;;;;;;;11.02;5.05;;;;;;;;;;10454798;27;20541;-65
2023/09/24 08:32:29;;;;;;;16.98;5.38;;;;;;;;;;10452380;27;20073;-66
2023/09/24 08:37:27;;;;;;;5.88;4.47;;;;;;;;;;10446801;27;20454;-65
2023/09/24 08:42:26;;;;;;;9.73;4.38;;;;;;;;;;10452833;27;20073;-66
2023/09/24 08:47:26;;;;;;;7.70;4.63;;;;;;;;;;10462132;27;20070;-66
2023/09/24 08:52:25;;;;;;;24.40;5.85;;;;;;;;;;10454543;27;20070;-66
2023/09/24 08:57:23;;;;;;;10.23;5.53;;;;;;;;;;10452064;27;20111;-66
2023/09/24 09:02:22;;;;;;;10.13;5.50;;;;;;;;;;10439489;27;20082;-66
2023/09/24 09:07:22;;;;;;;11.32;5.13;;;;;;;;;;10454863;27;20062;-66
2023/09/24 09:12:20;;;;;;;7.88;4.45;;;;;;;;;;10451469;27;20071;-66
2023/09/24 09:17:19;;;;;;;9.07;5.45;;;;;;;;;;10455242;27;20092;-65
2023/09/24 09:22:18;;;;;;;7.88;3.78;;;;;;;;;;10451089;27;20062;-65
2023/09/24 09:27:18;;;;;;;8.57;4.78;;;;;;;;;;10451125;27;20090;-66
2023/09/24 09:32:16;;;;;;;9.20;4.82;;;;;;;;;;10452744;27;20059;-65
2023/09/24 09:37:17;;;;;;;12.70;4.60;;;;;;;;;;10454368;27;20089;-67
2023/09/24 09:42:20;;;;;;;10.75;4.95;;;;;;;;;;10457757;27;20100;-65
2023/09/24 09:47:19;;;;;;;14.13;4.80;;;;;;;;;;10455251;27;20077;-67
2023/09/24 09:52:20;;;;;;;11.75;5.32;;;;;;;;;;10444099;27;20344;-68
2023/09/24 09:57:21;;;;;;;7.18;4.80;;;;;;;;;;10463984;27;20067;-68
2023/09/24 10:02:19;;;;;;;6.85;4.30;;;;;;;;;;10438712;27;20066;-69
2023/09/24 10:07:18;;;;;;;10.13;4.30;;;;;;;;;;10465100;27;20500;-68
2023/09/24 10:12:32;;;;;;;13.68;4.20;;;;;;;;;;10464569;27;20062;-68
2023/09/24 10:17:32;;;;;;;10.00;4.90;;;;;;;;;;10458481;27;20145;-67
2023/09/24 10:22:32;;;;;;;8.02;4.60;;;;;;;;;;10460646;27;20059;-69
2023/09/24 10:27:32;;;;;;;18.90;5.07;;;;;;;;;;10459360;27;20082;-67
2023/09/24 10:32:44;;;;;;;11.75;4.60;;;;;;;;;;10454007;27;20075;-68
2023/09/24 10:38:00;;;;;;;36.40;7.03;;;;;;;;;;10454789;27;20071;-68
2023/09/24 10:43:15;;;;;;;26.50;5.70;;;;;;;;;;10459854;27;20069;-68
2023/09/24 10:48:16;;;;;;;16.08;5.47;;;;;;;;;;10461159;27;20043;-68
2023/09/24 10:53:18;;;;;;;16.50;5.38;;;;;;;;;;10458271;27;20083;-67
2023/09/24 10:58:17;;;;;;;17.20;5.30;;;;;;;;;;10458868;27;20071;-67
2023/09/24 11:03:17;;;;;;;12.73;4.88;;;;;;;;;;10455769;27;20067;-68
2023/09/24 11:08:16;;;;;;;20.10;5.40;;;;;;;;;;10458017;27;20062;-68
2023/09/24 11:13:14;;;;;;;22.02;5.35;;;;;;;;;;10460440;27;20067;-68
2023/09/24 11:18:14;;;;;;;13.10;4.60;;;;;;;;;;10459661;27;20071;-68
2023/09/24 11:23:14;;;;;;;12.93;4.85;;;;;;;;;;10460730;27;20063;-68
2023/09/24 11:28:12;;;;;;;14.48;5.00;;;;;;;;;;10461186;27;20090;-67
2023/09/24 11:33:11;;;;;;;15.60;5.35;;;;;;;;;;10462697;27;20081;-68
2023/09/24 11:38:10;;;;;;;20.83;5.10;;;;;;;;;;10455691;27;20074;-68
2023/09/24 11:43:13;;;;;;;9.95;4.25;;;;;;;;;;10460843;27;20054;-67
2023/09/24 11:48:13;;;;;;;15.23;3.70;;;;;;;;;;10455997;27;20066;-67
2023/09/24 11:53:11;;;;;;;12.93;4.15;;;;;;;;;;10457151;27;20082;-68
2023/09/24 11:58:11;;;;;;;17.40;4.30;;;;;;;;;;10454052;27;20089;-67
2023/09/24 12:03:10;;;;;;;13.20;4.40;;;;;;;;;;10458702;27;20490;-68
2023/09/24 12:08:08;;;;;;;20.48;5.50;;;;;;;;;;10456456;27;20074;-68
2023/09/24 12:13:07;;;;;;;12.90;5.13;;;;;;;;;;10463874;27;20070;-67
2023/09/24 12:18:08;;;;;;;10.23;4.20;;;;;;;;;;10456743;27;20073;-68
2023/09/24 12:23:07;;;;;;;18.13;3.90;;;;;;;;;;10453728;27;20515;-67
2023/09/24 12:28:06;;;;;;;15.45;4.45;;;;;;;;;;10455002;27;20075;-67
2023/09/24 12:33:05;;;;;;;12.45;4.47;;;;;;;;;;10452960;27;20070;-68
2023/09/24 12:38:10;;;;;;;16.70;4.95;;;;;;;;;;10456544;27;20690;-68
2023/09/24 12:43:08;;;;;;;12.63;4.28;;;;;;;;;;10451781;27;20070;-68
2023/09/24 12:48:07;;;;;;;19.30;4.30;;;;;;;;;;10452545;27;20089;-68
2023/09/24 12:53:05;;;;;;;13.85;4.18;;;;;;;;;;10458105;27;20062;-68
2023/09/24 12:58:05;;;;;;;15.95;5.10;;;;;;;;;;10453456;27;20082;-68
2023/09/24 13:03:04;;;;;;;11.68;4.18;;;;;;;;;;10454494;27;20096;-68
2023/09/24 13:08:03;;;;;;;16.13;5.28;;;;;;;;;;10454440;27;20067;-68
2023/09/24 13:13:01;;;;;;;17.83;4.63;;;;;;;;;;10454103;27;20095;-68
2023/09/24 13:18:01;;;;;;;11.60;4.15;;;;;;;;;;10458391;27;20063;-68
2023/09/24 13:22:59;;;;;;;16.45;3.63;;;;;;;;;;10453208;27;20067;-68
2023/09/24 13:27:58;;;;;;;14.32;4.07;;;;;;;;;;10452434;27;20079;-68
2023/09/24 13:32:57;;;;;;;14.50;3.42;;;;;;;;;;10435831;27;20081;-66
2023/09/24 13:37:57;;;;;;;9.60;3.85;;;;;;;;;;10450515;27;20439;-66
2023/09/24 13:42:55;;;;;;;14.18;4.90;;;;;;;;;;10452805;27;20062;-69
2023/09/24 13:47:55;;;;;;;14.30;4.53;;;;;;;;;;10453790;27;20079;-68
2023/09/24 13:52:57;;;;;;;16.93;4.63;;;;;;;;;;10431656;27;20159;-67
2023/09/24 13:57:56;;;;;;;11.48;4.03;;;;;;;;;;10451264;27;20074;-67
2023/09/24 14:02:54;;;;;;;17.75;4.35;;;;;;;;;;10452592;27;20077;-67
2023/09/24 14:12:16;;;;;;;11.65;4.05;;;;;;;;;;10453491;27;20062;-69
2023/09/24 14:13:14;;;;;;;13.40;4.32;;;;;;;;;;10454370;27;20054;-68
2023/09/24 14:18:13;;;;;;;9.75;4.22;;;;;;;;;;10450763;27;20522;-69
2023/09/24 14:23:12;;;;;;;28.02;4.55;;;;;;;;;;10449587;27;20066;-69
2023/09/24 14:28:10;;;;;;;13.02;3.63;;;;;;;;;;10458995;27;20074;-69
2023/09/24 14:33:10;;;;;;;14.45;4.53;;;;;;;;;;10457458;27;20578;-68
2023/09/24 14:38:08;;;;;;;13.65;3.55;;;;;;;;;;10461427;27;20142;-66
2023/09/24 14:43:07;;;;;;;16.30;4.00;;;;;;;;;;10462725;27;20073;-67
2023/09/24 14:48:05;;;;;;;12.43;3.92;;;;;;;;;;10462179;27;20070;-67
2023/09/24 14:53:05;;;;;;;16.15;4.05;;;;;;;;;;10442362;27;20097;-68
2023/09/24 14:58:06;;;;;;;14.27;4.75;;;;;;;;;;10458097;27;20089;-67
2023/09/24 15:03:04;;;;;;;20.65;4.25;;;;;;;;;;10461520;27;20074;-67
2023/09/24 15:08:05;;;;;;;16.13;4.75;;;;;;;;;;10454007;27;20074;-66
2023/09/24 15:13:03;;;;;;;14.50;3.97;;;;;;;;;;10460510;27;20075;-67
2023/09/24 15:18:02;;;;;;;15.93;4.05;;;;;;;;;;10457430;27;20074;-67
2023/09/24 15:23:00;;;;;;;11.93;4.35;;;;;;;;;;10441969;27;20108;-68
2023/09/24 15:28:00;;;;;;;12.88;5.47;;;;;;;;;;10464027;27;20081;-68
2023/09/24 15:32:58;;;;;;;10.35;4.30;;;;;;;;;;10457520;27;20523;-67
2023/09/24 15:37:57;;;;;;;13.98;4.72;;;;;;;;;;10452813;27;20066;-68
2023/09/24 15:42:55;;;;;;;16.90;5.10;;;;;;;;;;10461176;27;20074;-68
2023/09/24 15:47:55;;;;;;;9.82;3.72;;;;;;;;;;10459793;27;20070;-67
2023/09/24 15:52:53;;;;;;;17.00;3.80;;;;;;;;;;10454166;27;20067;-67
2023/09/24 15:57:51;;;;;;;17.15;4.25;;;;;;;;;;10460609;27;20472;-67
2023/09/24 16:02:50;;;;;;;12.85;4.10;;;;;;;;;;10460318;27;20522;-67
2023/09/24 16:07:50;;;;;;;13.65;4.00;;;;;;;;;;10457441;27;20065;-68
2023/09/24 16:12:48;;;;;;;14.60;4.07;;;;;;;;;;10457152;27;20077;-68
2023/09/24 16:17:46;;;;;;;14.23;4.03;;;;;;;;;;10455769;27;20074;-69
2023/09/24 16:22:45;;;;;;;20.38;4.97;;;;;;;;;;10458964;27;20055;-68
2023/09/24 16:27:45;;;;;;;13.98;3.63;;;;;;;;;;10457411;27;20090;-68
2023/09/24 16:32:44;;;;;;;12.05;3.97;;;;;;;;;;10452452;27;20081;-67
2023/09/24 16:37:44;;;;;;;13.32;4.60;;;;;;;;;;10457905;27;20070;-67
2023/09/24 16:42:45;;;;;;;12.60;3.90;;;;;;;;;;10459280;27;20075;-68
2023/09/24 16:47:46;;;;;;;9.75;3.40;;;;;;;;;;10458614;27;20078;-69
2023/09/24 16:52:44;;;;;;;9.80;4.07;;;;;;;;;;10459426;27;20076;-68
2023/09/24 16:57:45;;;;;;;11.07;4.22;;;;;;;;;;10453164;27;20066;-68
2023/09/24 17:02:47;;;;;;;12.18;3.60;;;;;;;;;;10458917;27;20062;-68
2023/09/24 17:07:45;;;;;;;8.93;3.97;;;;;;;;;;10447756;27;20066;-69
2023/09/24 17:12:44;;;;;;;8.55;3.10;;;;;;;;;;10450160;27;20456;-68
2023/09/24 17:17:42;;;;;;;4.55;2.80;;;;;;;;;;10452477;27;20070;-68
2023/09/24 17:22:42;;;;;;;6.72;3.28;;;;;;;;;;10452570;27;20458;-67
2023/09/24 17:27:40;;;;;;;9.52;3.70;;;;;;;;;;10452489;27;20085;-67
2023/09/24 17:32:39;;;;;;;8.65;2.72;;;;;;;;;;10457823;27;20583;-67
2023/09/24 17:37:37;;;;;;;16.27;3.45;;;;;;;;;;10451372;27;20066;-70
2023/09/24 17:42:36;;;;;;;6.82;3.35;;;;;;;;;;10456914;27;20066;-69
2023/09/24 17:47:35;;;;;;;10.40;3.40;;;;;;;;;;10457771;27;20466;-66
2023/09/24 17:52:33;;;;;;;13.10;4.70;;;;;;;;;;10457880;27;20129;-67
2023/09/24 17:57:31;;;;;;;9.07;3.45;;;;;;;;;;10451955;27;20077;-67
2023/09/24 18:02:31;;;;;;;7.63;2.97;;;;;;;;;;10458631;27;20511;-66
2023/09/24 18:07:29;;;;;;;14.02;3.47;;;;;;;;;;10458806;27;20073;-66
2023/09/24 18:12:27;;;;;;;7.95;3.45;;;;;;;;;;10463409;27;20067;-67
2023/09/24 18:17:26;;;;;;;7.97;3.42;;;;;;;;;;10461395;27;20059;-66
2023/09/24 18:22:25;;;;;;;7.60;3.05;;;;;;;;;;10460128;27;20062;-67
2023/09/24 18:27:27;;;;;;;6.63;2.65;;;;;;;;;;10461352;27;20078;-67
2023/09/24 18:32:26;;;;;;;7.07;2.35;;;;;;;;;;10458408;27;20480;-67
2023/09/24 18:37:26;;;;;;;6.05;2.35;;;;;;;;;;10458653;27;20073;-67
2023/09/24 18:42:25;;;;;;;4.07;2.28;;;;;;;;;;10460714;27;20479;-68
2023/09/24 18:47:25;;;;;;;6.78;2.15;;;;;;;;;;10461104;27;20488;-67
2023/09/24 18:52:27;;;;;;;4.45;2.35;;;;;;;;;;10462164;27;20067;-68
2023/09/24 18:57:26;;;;;;;12.05;3.28;;;;;;;;;;10457750;27;20074;-68
2023/09/24 19:02:24;;;;;;;4.38;2.13;;;;;;;;;;10462034;27;20070;-68
2023/09/24 19:07:22;;;;;;;3.55;2.58;;;;;;;;;;10461751;27;20074;-68
2023/09/24 19:12:22;;;;;;;2.88;2.45;;;;;;;;;;10450170;27;20066;-67
2023/09/24 19:17:23;;;;;;;4.90;2.20;;;;;;;;;;10455547;27;20081;-67
2023/09/24 19:22:24;;;;;;;6.30;2.40;;;;;;;;;;10458070;27;20070;-67
2023/09/24 19:27:23;;;;;;;7.10;2.17;;;;;;;;;;10458581;27;20087;-67
2023/09/24 19:32:22;;;;;;;9.75;3.03;;;;;;;;;;10464538;27;20066;-68
2023/09/24 19:37:20;;;;;;;3.55;2.05;;;;;;;;;;10458360;27;20085;-68
2023/09/24 19:42:18;;;;;;;4.60;2.22;;;;;;;;;;10457749;27;20097;-68
2023/09/24 19:47:19;;;;;;;6.50;2.97;;;;;;;;;;10459371;27;20081;-67
2023/09/24 19:52:19;;;;;;;5.95;2.60;;;;;;;;;;10455903;27;20069;-67
2023/09/24 19:57:18;;;;;;;3.53;2.60;;;;;;;;;;10456824;27;20078;-67
2023/09/24 20:02:16;;;;;;;2.70;2.33;;;;;;;;;;10455768;27;20065;-67
2023/09/24 20:07:16;;;;;;;5.13;2.38;;;;;;;;;;10459725;27;20085;-67
2023/09/24 20:12:14;;;;;;;5.13;2.55;;;;;;;;;;10454009;27;20071;-67
2023/09/24 20:17:12;;;;;;;6.30;2.55;;;;;;;;;;10452776;27;20090;-67
2023/09/24 20:22:11;;;;;;;3.08;2.40;;;;;;;;;;10454043;27;20777;-68
2023/09/24 20:27:10;;;;;;;3.50;2.75;;;;;;;;;;10447662;27;20074;-65
2023/09/24 20:32:09;;;;;;;10.52;3.78;;;;;;;;;;10453388;27;20074;-66
2023/09/24 20:37:07;;;;;;;8.02;2.58;;;;;;;;;;10456240;27;20078;-67
2023/09/24 20:42:06;;;;;;;5.05;2.65;;;;;;;;;;10436894;27;20079;-67
2023/09/24 20:47:16;;;;;;;5.13;2.78;;;;;;;;;;10456980;27;20071;-67
2023/09/24 20:52:15;;;;;;;5.65;3.40;;;;;;;;;;10457150;27;20074;-67
2023/09/24 20:57:15;;;;;;;5.45;3.33;;;;;;;;;;10454094;27;20074;-66
2023/09/24 21:02:15;;;;;;;5.10;3.30;;;;;;;;;;10456528;27;20078;-66
2023/09/24 21:07:13;;;;;;;5.38;3.47;;;;;;;;;;10452970;27;20071;-67
2023/09/24 21:12:11;;;;;;;5.60;3.30;;;;;;;;;;10455280;27;20078;-67
2023/09/24 21:17:10;;;;;;;7.25;3.47;;;;;;;;;;10456941;27;20077;-67
2023/09/24 21:22:09;;;;;;;5.93;3.22;;;;;;;;;;10453492;27;20062;-67
2023/09/24 21:27:08;;;;;;;10.75;3.30;;;;;;;;;;10447937;27;20073;-67
2023/09/24 21:32:06;;;;;;;5.15;3.53;;;;;;;;;;10454144;27;20069;-67
2023/09/24 21:37:05;;;;;;;3.97;3.30;;;;;;;;;;10452515;27;20143;-67
2023/09/24 21:42:05;;;;;;;3.75;3.00;;;;;;;;;;10453894;27;20077;-67
2023/09/24 21:47:05;;;;;;;4.30;2.95;;;;;;;;;;10454979;27;20073;-67
2023/09/24 21:52:03;;;;;;;4.20;3.35;;;;;;;;;;10438713;27;20089;-67
2023/09/24 21:57:01;;;;;;;10.02;3.58;;;;;;;;;;10453361;27;20085;-67
2023/09/24 22:02:02;;;;;;;3.55;3.25;;;;;;;;;;10456870;27;20530;-67
2023/09/24 22:07:01;;;;;;;5.60;3.13;;;;;;;;;;10450385;27;20075;-67
2023/09/24 22:11:59;;;;;;;3.83;3.20;;;;;;;;;;10454411;27;20078;-67
2023/09/24 22:16:57;;;;;;;9.27;3.03;;;;;;;;;;10450547;27;20069;-67
2023/09/24 22:21:57;;;;;;;7.72;3.63;;;;;;;;;;10456394;27;20392;-67
2023/09/24 22:26:55;;;;;;;4.45;3.05;;;;;;;;;;10453673;27;20074;-67
2023/09/24 22:31:53;;;;;;;5.15;3.40;;;;;;;;;;10451632;27;20070;-67
2023/09/24 22:36:52;;;;;;;6.93;3.72;;;;;;;;;;10456191;27;20505;-67
2023/09/24 22:41:51;;;;;;;6.25;3.85;;;;;;;;;;10455517;27;20460;-67
2023/09/24 22:46:50;;;;;;;4.88;4.03;;;;;;;;;;10456161;27;20059;-66
2023/09/24 22:51:48;;;;;;;7.00;3.47;;;;;;;;;;10446887;27;20092;-66
2023/09/24 22:56:46;;;;;;;8.07;4.18;;;;;;;;;;10460895;27;20058;-67
2023/09/24 23:01:46;;;;;;;4.22;3.22;;;;;;;;;;10459888;27;20062;-68
2023/09/24 23:06:47;;;;;;;4.13;3.83;;;;;;;;;;10456669;27;20512;-68
2023/09/24 23:11:45;;;;;;;7.57;4.30;;;;;;;;;;10456813;27;20074;-67
2023/09/24 23:16:43;;;;;;;4.97;3.33;;;;;;;;;;10461449;27;20066;-68
2023/09/24 23:21:43;;;;;;;6.13;3.85;;;;;;;;;;10456845;27;20072;-68
2023/09/24 23:26:42;;;;;;;7.97;3.95;;;;;;;;;;10456154;27;20276;-68
2023/09/24 23:31:40;;;;;;;6.43;3.80;;;;;;;;;;10455780;27;20078;-67
2023/09/24 23:36:38;;;;;;;5.05;3.60;;;;;;;;;;10461869;27;20062;-67
2023/09/24 23:41:38;;;;;;;4.07;3.70;;;;;;;;;;10457536;27;20063;-67
2023/09/24 23:46:37;;;;;;;4.65;3.90;;;;;;;;;;10457366;27;20437;-66
2023/09/24 23:51:35;;;;;;;9.43;3.92;;;;;;;;;;10459372;27;20094;-67
2023/09/24 23:56:34;;;;;;;5.00;3.90;;;;;;;;;;10456685;27;20066;-67
